createdAt,value
2018-01-02T00:04:30.549Z,1.4
2018-01-02T00:09:30.566Z,1.4
2018-01-02T00:14:30.557Z,1.5
2018-01-02T00:19:30.553Z,1.5
2018-01-02T00:24:30.718Z,1.5
2018-01-02T00:29:30.574Z,1.5
2018-01-02T00:34:30.553Z,1.5
2018-01-02T00:39:30.714Z,1.5
2018-01-02T00:44:30.627Z,1.6
2018-01-02T00:49:30.564Z,1.5
2018-01-02T00:54:30.546Z,1.5
2018-01-02T00:59:30.638Z,1.4
2018-01-02T01:04:30.753Z,1.5
2018-01-02T01:09:30.662Z,1.4
2018-01-02T01:14:30.585Z,1.4
2018-01-02T01:19:30.568Z,1.4
2018-01-02T01:24:30.750Z,1.5
2018-01-02T01:29:30.567Z,1.5
2018-01-02T01:34:30.575Z,1.6
2018-01-02T01:39:30.577Z,1.6
2018-01-02T01:44:30.582Z,1.6
2018-01-02T01:49:30.581Z,1.7
2018-01-02T01:54:30.609Z,1.8
2018-01-02T01:59:30.583Z,1.9
2018-01-02T02:04:31.301Z,1.9
2018-01-02T02:09:30.591Z,2
2018-01-02T02:14:30.594Z,2
2018-01-02T02:19:30.616Z,2
2018-01-02T02:24:30.810Z,2
2018-01-02T02:29:30.612Z,2
2018-01-02T02:34:30.602Z,2.1
2018-01-02T02:39:30.612Z,2.1
2018-01-02T02:44:30.616Z,2.1
2018-01-02T02:49:30.619Z,2.2
2018-01-02T02:54:30.875Z,2.2
2018-01-02T02:59:30.634Z,2.3
2018-01-02T03:04:30.659Z,2.4
2018-01-02T03:09:30.643Z,2.3
2018-01-02T03:14:30.644Z,2.4
2018-01-02T03:19:30.638Z,2.3
2018-01-02T03:24:30.647Z,2.3
2018-01-02T03:29:30.800Z,2.5
2018-01-02T03:34:30.660Z,2.8
2018-01-02T03:39:30.644Z,3.2
2018-01-02T03:44:30.642Z,4.1
2018-01-02T03:49:30.828Z,4.6
2018-01-02T03:54:30.648Z,5
2018-01-02T03:59:30.664Z,5.2
2018-01-02T04:04:30.823Z,5.5
2018-01-02T04:09:30.668Z,5.5
2018-01-02T04:14:30.658Z,5.5
2018-01-02T04:19:30.667Z,5.6
2018-01-02T04:24:30.664Z,5.7
2018-01-02T04:29:30.667Z,5.7
2018-01-02T04:34:30.684Z,5.7
2018-01-02T04:39:30.677Z,5.7
2018-01-02T04:44:30.687Z,5.8
2018-01-02T04:49:30.687Z,5.7
2018-01-02T04:54:30.703Z,5.7
2018-01-02T04:59:30.692Z,5.7
2018-01-02T05:04:30.692Z,5.7
2018-01-02T05:09:30.697Z,5.6
2018-01-02T05:14:30.714Z,5.7
2018-01-02T05:19:30.854Z,5.6
2018-01-02T05:24:30.693Z,5.5
2018-01-02T05:29:30.700Z,5.6
2018-01-02T05:34:30.836Z,5.7
2018-01-02T05:39:30.729Z,5.7
2018-01-02T05:44:30.933Z,6
2018-01-02T05:49:30.720Z,6.1
2018-01-02T05:54:30.858Z,6
2018-01-02T05:59:30.875Z,6.1
2018-01-02T06:04:30.732Z,6
2018-01-02T06:09:30.760Z,6.1
2018-01-02T06:14:30.890Z,6.2
2018-01-02T06:19:30.729Z,6
2018-01-02T06:24:30.755Z,5.9
2018-01-02T06:29:30.750Z,5.8
2018-01-02T06:34:30.753Z,5.9
2018-01-02T06:39:30.753Z,5.8
2018-01-02T06:44:30.867Z,5.9
2018-01-02T06:49:30.882Z,6
2018-01-02T06:54:30.936Z,5.9
2018-01-02T06:59:30.952Z,5.9
2018-01-02T07:04:30.800Z,5.9
2018-01-02T07:09:30.775Z,5.9
2018-01-02T07:14:30.946Z,6
2018-01-02T07:19:30.951Z,5.9
2018-01-02T07:24:30.774Z,6
2018-01-02T07:29:31.056Z,6
2018-01-02T07:34:30.979Z,6
2018-01-02T07:39:30.774Z,6
2018-01-02T07:44:30.940Z,6
2018-01-02T07:49:30.844Z,6
2018-01-02T07:54:30.981Z,6.1
2018-01-02T07:59:30.784Z,6.1
2018-01-02T08:04:30.782Z,6.1
2018-01-02T08:09:30.792Z,6.1
2018-01-02T08:14:30.892Z,6.2
2018-01-02T08:19:30.799Z,6.2
2018-01-02T08:24:30.801Z,6.2
2018-01-02T08:29:30.804Z,6.2
2018-01-02T08:34:30.808Z,6.2
2018-01-02T08:39:30.810Z,6.3
2018-01-02T08:44:30.810Z,6.3
2018-01-02T08:49:30.900Z,6.3
2018-01-02T08:54:30.867Z,6.4
2018-01-02T08:59:30.825Z,6.4
2018-01-02T09:04:30.822Z,6.4
2018-01-02T09:09:30.837Z,6.5
2018-01-02T09:14:30.815Z,6.5
2018-01-02T09:19:31.009Z,6.5
2018-01-02T09:24:30.843Z,6.6
2018-01-02T09:29:30.942Z,6.6
2018-01-02T09:34:30.824Z,6.6
2018-01-02T09:39:30.842Z,6.7
2018-01-02T09:44:30.851Z,6.8
2018-01-02T09:49:30.844Z,6.7
2018-01-02T09:54:30.847Z,6.8
2018-01-02T09:59:31.030Z,6.8
2018-01-02T10:04:30.944Z,6.8
2018-01-02T10:09:30.853Z,6.9
2018-01-02T10:14:30.848Z,6.9
2018-01-02T10:19:30.867Z,6.9
2018-01-02T10:24:30.868Z,7
2018-01-02T10:29:30.879Z,7.2
2018-01-02T10:34:30.851Z,7.2
2018-01-02T10:39:30.877Z,7.2
2018-01-02T10:44:30.984Z,7.2
2018-01-02T10:49:30.894Z,7.2
2018-01-02T10:59:30.977Z,6.8
2018-01-02T11:04:30.865Z,6.6
2018-01-02T11:09:30.913Z,6.4
2018-01-02T11:14:31.041Z,6.4
2018-01-02T11:19:30.908Z,6.5
2018-01-02T11:24:30.919Z,6.5
2018-01-02T11:29:30.905Z,6.4
2018-01-02T11:34:30.880Z,6.5
2018-01-02T11:39:30.903Z,6.5
2018-01-02T11:44:31.043Z,6.6
2018-01-02T11:49:31.073Z,6.7
2018-01-02T11:54:30.899Z,6.7
2018-01-02T11:59:30.902Z,6.8
2018-01-02T12:04:31.080Z,6.9
2018-01-02T12:09:30.945Z,6.9
2018-01-02T12:14:31.022Z,6.9
2018-01-02T12:19:30.924Z,7
2018-01-02T12:24:30.913Z,6.9
2018-01-02T12:29:30.923Z,6.7
2018-01-02T12:34:30.925Z,6.6
2018-01-02T12:39:30.940Z,6.6
2018-01-02T12:44:30.920Z,6.6
2018-01-02T12:49:30.933Z,6.6
2018-01-02T12:54:30.936Z,6.6
2018-01-02T12:59:30.933Z,6.6
2018-01-02T13:04:31.884Z,6.6
2018-01-02T13:09:33.522Z,6.4
2018-01-02T13:14:31.893Z,6.1
2018-01-02T13:19:32.038Z,5.8
2018-01-02T13:24:31.876Z,5.5
2018-01-02T13:29:31.874Z,5.4
2018-01-02T13:34:31.902Z,5.2
2018-01-02T13:39:31.897Z,5.3
2018-01-02T13:44:31.902Z,5.2
2018-01-02T13:49:32.013Z,5.3
2018-01-02T13:54:31.901Z,5.4
2018-01-02T13:59:32.077Z,5.3
2018-01-02T14:04:31.998Z,5.3
2018-01-02T14:09:31.911Z,5.4
2018-01-02T14:14:31.925Z,5.2
2018-01-02T14:19:32.127Z,5.1
2018-01-02T14:24:31.911Z,5
2018-01-02T14:29:32.081Z,4.9
2018-01-02T14:34:31.963Z,5
2018-01-02T14:39:31.939Z,4.8
2018-01-02T14:44:32.023Z,4.7
2018-01-02T14:49:32.078Z,4.7
2018-01-02T14:54:31.945Z,4.6
2018-01-02T14:59:32.021Z,4.6
2018-01-02T15:04:31.947Z,4.6
2018-01-02T15:09:32.003Z,4.5
2018-01-02T15:14:32.131Z,4.5
2018-01-02T15:19:32.041Z,4.5
2018-01-02T15:24:31.969Z,4.5
2018-01-02T15:29:32.003Z,4.4
2018-01-02T15:34:32.130Z,4.5
2018-01-02T15:39:32.063Z,4.5
2018-01-02T15:44:32.105Z,4.5
2018-01-02T15:49:32.147Z,4.4
2018-01-02T15:54:31.989Z,4.4
2018-01-02T15:59:32.090Z,4.4
2018-01-02T16:04:32.014Z,4.4
2018-01-02T16:09:32.263Z,4.4
2018-01-02T16:14:32.218Z,4.4
2018-01-02T16:19:32.158Z,4.4
2018-01-02T16:24:32.084Z,4.4
2018-01-02T16:29:32.075Z,4.4
2018-01-02T16:34:32.088Z,4.4
2018-01-02T16:39:32.155Z,4.4
2018-01-02T16:44:32.163Z,4.4
2018-01-02T16:49:32.579Z,4.4
2018-01-02T16:54:32.245Z,4.4
2018-01-02T16:59:37.353Z,4.4
2018-01-02T17:04:32.120Z,4.4
2018-01-02T17:09:32.019Z,4.4
2018-01-02T17:14:32.011Z,4.5
2018-01-02T17:19:32.039Z,4.4
2018-01-02T17:24:32.076Z,4.5
2018-01-02T17:29:32.022Z,4.5
2018-01-02T17:34:32.028Z,4.5
2018-01-02T17:39:32.066Z,4.5
2018-01-02T17:44:32.049Z,4.5
2018-01-02T17:49:32.108Z,4.5
2018-01-02T17:54:32.262Z,4.5
2018-01-02T17:59:32.064Z,4.5
2018-01-02T18:04:42.082Z,4.5
2018-01-02T18:09:32.092Z,4.5
2018-01-02T18:14:32.196Z,4.5
2018-01-02T18:19:32.081Z,4.5
2018-01-02T18:24:32.858Z,4.5
2018-01-02T18:29:32.097Z,4.5
2018-01-02T18:34:32.097Z,4.5
2018-01-02T18:39:32.112Z,4.5
2018-01-02T18:44:32.135Z,4.5
2018-01-02T18:49:32.106Z,4.5
2018-01-02T18:54:32.070Z,4.5
2018-01-02T18:59:32.109Z,4.5
2018-01-02T19:04:32.115Z,4.5
2018-01-02T19:09:42.069Z,4.6
2018-01-02T19:14:32.290Z,4.6
2018-01-02T19:19:32.096Z,4.5
2018-01-02T19:24:32.251Z,4.4
2018-01-02T19:29:32.272Z,4.3
2018-01-02T19:34:32.122Z,4.3
2018-01-02T19:39:32.109Z,4.3
2018-01-02T19:44:32.129Z,4.2
2018-01-02T19:49:42.111Z,4.3
2018-01-02T19:54:32.311Z,4.3
2018-01-02T19:59:32.260Z,4.2
2018-01-02T20:04:32.288Z,4.1
2018-01-02T20:09:32.288Z,4
2018-01-02T20:14:32.347Z,3.9
2018-01-02T20:19:32.250Z,3.7
2018-01-02T20:24:32.315Z,3.7
2018-01-02T20:29:32.139Z,3.7
2018-01-02T20:34:38.534Z,3.7
2018-01-02T20:39:40.454Z,3.8
2018-01-02T20:44:32.193Z,3.7
2018-01-02T20:49:33.146Z,3.8
2018-01-02T20:54:32.310Z,3.7
2018-01-02T20:59:32.175Z,3.6
2018-01-02T21:04:32.382Z,3.7
2018-01-02T21:09:32.471Z,3.6
2018-01-02T21:14:32.378Z,3.6
2018-01-02T21:19:32.442Z,3.5
2018-01-02T21:24:32.187Z,3.5
2018-01-02T21:29:32.263Z,3.4
2018-01-02T21:34:32.253Z,3.4
2018-01-02T21:39:32.348Z,3.4
2018-01-02T21:44:32.387Z,3.3
2018-01-02T21:49:33.314Z,3.3
2018-01-02T21:54:32.271Z,3.2
2018-01-02T21:59:32.195Z,3.2
2018-01-02T22:04:32.357Z,3
2018-01-02T22:09:32.188Z,3.1
2018-01-02T22:14:32.416Z,3
2018-01-02T22:19:32.227Z,2.8
2018-01-02T22:24:32.204Z,2.9
2018-01-02T22:29:32.336Z,2.7
2018-01-02T22:34:32.210Z,2.6
2018-01-02T22:39:32.212Z,2.5
2018-01-02T22:44:32.246Z,2.5
2018-01-02T22:49:32.353Z,2.4
2018-01-02T22:54:32.390Z,2.3
2018-01-02T22:59:32.225Z,2.4
2018-01-02T23:04:32.227Z,2.3
2018-01-02T23:09:32.365Z,2.2
2018-01-02T23:14:32.223Z,2.1
2018-01-02T23:19:32.239Z,2.2
2018-01-02T23:24:32.344Z,2.1
2018-01-02T23:29:32.234Z,2.1
2018-01-02T23:34:32.255Z,2
2018-01-02T23:39:32.338Z,2
2018-01-02T23:44:32.392Z,2
2018-01-02T23:49:32.240Z,2
2018-01-02T23:54:32.454Z,2
2018-01-02T23:59:32.356Z,2
